sensor_id;sensor_type;location;lat;lon;timestamp;P1;durP1;ratioP1;P2;durP2;ratioP2
4106;SDS011;21906;50.812;7.132;2023-09-19T00:01:15;2.47;;;2.07;;
4106;SDS011;21906;50.812;7.132;2023-09-19T00:03:45;2.60;;;2.03;;
4106;SDS011;21906;50.812;7.132;2023-09-19T00:06:10;3.90;;;2.10;;
4106;SDS011;21906;50.812;7.132;2023-09-19T00:08:38;2.27;;;2.07;;
4106;SDS011;21906;50.812;7.132;2023-09-19T00:11:04;3.83;;;2.13;;
4106;SDS011;21906;50.812;7.132;2023-09-19T00:13:31;5.30;;;2.40;;
4106;SDS011;21906;50.812;7.132;2023-09-19T00:15:58;2.70;;;2.50;;
4106;SDS011;21906;50.812;7.132;2023-09-19T00:18:25;7.97;;;2.03;;
4106;SDS011;21906;50.812;7.132;2023-09-19T00:21:00;3.00;;;1.80;;
4106;SDS011;21906;50.812;7.132;2023-09-19T00:23:26;3.63;;;2.07;;
4106;SDS011;21906;50.812;7.132;2023-09-19T00:25:53;3.00;;;2.00;;
4106;SDS011;21906;50.812;7.132;2023-09-19T00:28:23;2.43;;;1.70;;
4106;SDS011;21906;50.812;7.132;2023-09-19T00:30:48;2.20;;;1.93;;
4106;SDS011;21906;50.812;7.132;2023-09-19T00:33:17;2.40;;;2.20;;
4106;SDS011;21906;50.812;7.132;2023-09-19T00:35:50;3.27;;;1.87;;
4106;SDS011;21906;50.812;7.132;2023-09-19T00:38:16;2.10;;;1.90;;
4106;SDS011;21906;50.812;7.132;2023-09-19T00:40:46;4.00;;;1.90;;
4106;SDS011;21906;50.812;7.132;2023-09-19T00:43:12;2.43;;;1.90;;
4106;SDS011;21906;50.812;7.132;2023-09-19T00:45:38;5.37;;;2.10;;
4106;SDS011;21906;50.812;7.132;2023-09-19T00:48:07;3.13;;;1.97;;
4106;SDS011;21906;50.812;7.132;2023-09-19T00:50:34;1.70;;;1.60;;
4106;SDS011;21906;50.812;7.132;2023-09-19T00:53:00;1.77;;;1.67;;
4106;SDS011;21906;50.812;7.132;2023-09-19T00:55:32;1.83;;;1.57;;
4106;SDS011;21906;50.812;7.132;2023-09-19T00:57:59;2.20;;;2.00;;
4106;SDS011;21906;50.812;7.132;2023-09-19T01:00:25;2.93;;;1.83;;
4106;SDS011;21906;50.812;7.132;2023-09-19T01:02:52;2.63;;;1.93;;
4106;SDS011;21906;50.812;7.132;2023-09-19T01:05:17;2.20;;;1.80;;
4106;SDS011;21906;50.812;7.132;2023-09-19T01:07:43;4.17;;;2.17;;
4106;SDS011;21906;50.812;7.132;2023-09-19T01:10:11;2.50;;;2.07;;
4106;SDS011;21906;50.812;7.132;2023-09-19T01:17:49;3.10;;;1.97;;
4106;SDS011;21906;50.812;7.132;2023-09-19T01:26:05;2.10;;;1.90;;
4106;SDS011;21906;50.812;7.132;2023-09-19T01:31:06;3.13;;;2.23;;
4106;SDS011;21906;50.812;7.132;2023-09-19T01:36:32;2.90;;;1.97;;
4106;SDS011;21906;50.812;7.132;2023-09-19T01:39:01;2.00;;;1.80;;
4106;SDS011;21906;50.812;7.132;2023-09-19T01:47:09;3.10;;;2.10;;
4106;SDS011;21906;50.812;7.132;2023-09-19T01:49:55;2.80;;;1.73;;
4106;SDS011;21906;50.812;7.132;2023-09-19T01:52:26;2.40;;;1.60;;
4106;SDS011;21906;50.812;7.132;2023-09-19T01:54:56;4.73;;;1.73;;
4106;SDS011;21906;50.812;7.132;2023-09-19T01:57:35;2.90;;;1.83;;
4106;SDS011;21906;50.812;7.132;2023-09-19T02:00:29;2.90;;;1.80;;
4106;SDS011;21906;50.812;7.132;2023-09-19T02:02:57;5.80;;;2.33;;
4106;SDS011;21906;50.812;7.132;2023-09-19T02:05:24;4.50;;;2.00;;
4106;SDS011;21906;50.812;7.132;2023-09-19T02:07:54;3.83;;;1.60;;
4106;SDS011;21906;50.812;7.132;2023-09-19T02:10:21;2.90;;;1.80;;
4106;SDS011;21906;50.812;7.132;2023-09-19T02:12:48;3.70;;;2.00;;
4106;SDS011;21906;50.812;7.132;2023-09-19T02:15:15;7.70;;;2.00;;
4106;SDS011;21906;50.812;7.132;2023-09-19T02:17:41;5.03;;;2.40;;
4106;SDS011;21906;50.812;7.132;2023-09-19T02:20:09;2.90;;;2.10;;
4106;SDS011;21906;50.812;7.132;2023-09-19T02:22:39;8.00;;;2.20;;
4106;SDS011;21906;50.812;7.132;2023-09-19T02:25:06;5.83;;;2.27;;
4106;SDS011;21906;50.812;7.132;2023-09-19T02:27:33;6.70;;;2.70;;
4106;SDS011;21906;50.812;7.132;2023-09-19T02:29:59;3.00;;;2.03;;
4106;SDS011;21906;50.812;7.132;2023-09-19T02:32:27;5.67;;;2.00;;
4106;SDS011;21906;50.812;7.132;2023-09-19T02:34:55;3.60;;;1.80;;
4106;SDS011;21906;50.812;7.132;2023-09-19T02:37:20;5.10;;;2.30;;
4106;SDS011;21906;50.812;7.132;2023-09-19T02:39:46;3.70;;;2.00;;
4106;SDS011;21906;50.812;7.132;2023-09-19T02:42:12;6.00;;;2.30;;
4106;SDS011;21906;50.812;7.132;2023-09-19T02:44:38;5.23;;;2.33;;
4106;SDS011;21906;50.812;7.132;2023-09-19T02:47:05;7.87;;;2.63;;
4106;SDS011;21906;50.812;7.132;2023-09-19T02:49:30;3.30;;;1.80;;
4106;SDS011;21906;50.812;7.132;2023-09-19T02:51:57;5.20;;;2.03;;
4106;SDS011;21906;50.812;7.132;2023-09-19T02:54:24;4.73;;;1.90;;
4106;SDS011;21906;50.812;7.132;2023-09-19T02:56:51;3.27;;;2.00;;
4106;SDS011;21906;50.812;7.132;2023-09-19T02:59:18;4.00;;;1.80;;
4106;SDS011;21906;50.812;7.132;2023-09-19T03:01:44;7.00;;;2.70;;
4106;SDS011;21906;50.812;7.132;2023-09-19T03:04:13;4.70;;;2.20;;
4106;SDS011;21906;50.812;7.132;2023-09-19T03:06:44;5.07;;;2.50;;
4106;SDS011;21906;50.812;7.132;2023-09-19T03:09:11;4.97;;;2.13;;
4106;SDS011;21906;50.812;7.132;2023-09-19T03:11:36;3.57;;;1.80;;
4106;SDS011;21906;50.812;7.132;2023-09-19T03:14:05;3.40;;;1.83;;
4106;SDS011;21906;50.812;7.132;2023-09-19T03:16:30;10.60;;;2.40;;
4106;SDS011;21906;50.812;7.132;2023-09-19T03:18:56;7.17;;;2.60;;
4106;SDS011;21906;50.812;7.132;2023-09-19T03:21:24;10.83;;;2.80;;
4106;SDS011;21906;50.812;7.132;2023-09-19T03:23:50;4.57;;;2.10;;
4106;SDS011;21906;50.812;7.132;2023-09-19T03:26:16;8.70;;;2.43;;
4106;SDS011;21906;50.812;7.132;2023-09-19T03:28:42;3.97;;;1.97;;
4106;SDS011;21906;50.812;7.132;2023-09-19T03:31:08;5.50;;;2.20;;
4106;SDS011;21906;50.812;7.132;2023-09-19T03:33:34;5.53;;;2.10;;
4106;SDS011;21906;50.812;7.132;2023-09-19T03:36:00;10.10;;;2.87;;
4106;SDS011;21906;50.812;7.132;2023-09-19T03:38:29;5.33;;;2.30;;
4106;SDS011;21906;50.812;7.132;2023-09-19T03:40:55;4.23;;;2.00;;
4106;SDS011;21906;50.812;7.132;2023-09-19T03:43:21;6.83;;;2.13;;
4106;SDS011;21906;50.812;7.132;2023-09-19T03:45:47;6.00;;;2.40;;
4106;SDS011;21906;50.812;7.132;2023-09-19T03:48:13;5.17;;;2.33;;
4106;SDS011;21906;50.812;7.132;2023-09-19T03:50:39;4.83;;;2.20;;
4106;SDS011;21906;50.812;7.132;2023-09-19T03:53:05;7.20;;;2.40;;
4106;SDS011;21906;50.812;7.132;2023-09-19T03:55:32;8.40;;;2.40;;
4106;SDS011;21906;50.812;7.132;2023-09-19T03:58:00;2.47;;;2.27;;
4106;SDS011;21906;50.812;7.132;2023-09-19T04:00:26;7.13;;;2.90;;
4106;SDS011;21906;50.812;7.132;2023-09-19T04:02:52;5.90;;;1.93;;
4106;SDS011;21906;50.812;7.132;2023-09-19T04:05:18;5.10;;;2.50;;
4106;SDS011;21906;50.812;7.132;2023-09-19T04:07:44;4.40;;;1.77;;
4106;SDS011;21906;50.812;7.132;2023-09-19T04:10:10;4.10;;;2.33;;
4106;SDS011;21906;50.812;7.132;2023-09-19T04:12:39;3.23;;;2.33;;
4106;SDS011;21906;50.812;7.132;2023-09-19T04:15:05;4.63;;;2.50;;
4106;SDS011;21906;50.812;7.132;2023-09-19T04:17:31;3.63;;;2.20;;
4106;SDS011;21906;50.812;7.132;2023-09-19T04:20:00;5.67;;;2.20;;
4106;SDS011;21906;50.812;7.132;2023-09-19T04:22:25;5.03;;;2.33;;
4106;SDS011;21906;50.812;7.132;2023-09-19T04:24:51;3.87;;;2.27;;
4106;SDS011;21906;50.812;7.132;2023-09-19T04:27:17;8.03;;;2.70;;
4106;SDS011;21906;50.812;7.132;2023-09-19T04:29:43;2.63;;;1.90;;
4106;SDS011;21906;50.812;7.132;2023-09-19T04:32:09;4.67;;;2.40;;
4106;SDS011;21906;50.812;7.132;2023-09-19T04:34:37;6.00;;;2.33;;
4106;SDS011;21906;50.812;7.132;2023-09-19T04:37:05;4.43;;;2.40;;
4106;SDS011;21906;50.812;7.132;2023-09-19T04:39:31;4.37;;;2.10;;
4106;SDS011;21906;50.812;7.132;2023-09-19T04:41:56;7.17;;;2.80;;
4106;SDS011;21906;50.812;7.132;2023-09-19T04:44:23;5.70;;;2.37;;
4106;SDS011;21906;50.812;7.132;2023-09-19T04:46:49;7.80;;;2.37;;
4106;SDS011;21906;50.812;7.132;2023-09-19T04:49:15;4.00;;;2.40;;
4106;SDS011;21906;50.812;7.132;2023-09-19T04:51:41;4.93;;;2.07;;
4106;SDS011;21906;50.812;7.132;2023-09-19T04:54:07;4.53;;;2.30;;
4106;SDS011;21906;50.812;7.132;2023-09-19T04:56:33;3.63;;;2.10;;
4106;SDS011;21906;50.812;7.132;2023-09-19T04:58:59;4.23;;;2.37;;
4106;SDS011;21906;50.812;7.132;2023-09-19T05:01:25;8.33;;;2.40;;
4106;SDS011;21906;50.812;7.132;2023-09-19T05:03:52;11.13;;;2.67;;
4106;SDS011;21906;50.812;7.132;2023-09-19T05:06:21;6.80;;;2.30;;
4106;SDS011;21906;50.812;7.132;2023-09-19T05:08:47;5.70;;;2.30;;
4106;SDS011;21906;50.812;7.132;2023-09-19T05:11:16;6.93;;;3.40;;
4106;SDS011;21906;50.812;7.132;2023-09-19T05:13:43;4.00;;;2.50;;
4106;SDS011;21906;50.812;7.132;2023-09-19T05:16:09;4.10;;;2.37;;
4106;SDS011;21906;50.812;7.132;2023-09-19T05:18:35;3.17;;;2.00;;
4106;SDS011;21906;50.812;7.132;2023-09-19T05:21:04;6.77;;;2.43;;
4106;SDS011;21906;50.812;7.132;2023-09-19T05:23:30;6.97;;;2.40;;
4106;SDS011;21906;50.812;7.132;2023-09-19T05:25:56;6.60;;;2.40;;
4106;SDS011;21906;50.812;7.132;2023-09-19T05:28:25;4.07;;;2.30;;
4106;SDS011;21906;50.812;7.132;2023-09-19T05:30:52;11.20;;;2.60;;
4106;SDS011;21906;50.812;7.132;2023-09-19T05:33:18;7.70;;;2.77;;
4106;SDS011;21906;50.812;7.132;2023-09-19T05:35:45;6.40;;;2.50;;
4106;SDS011;21906;50.812;7.132;2023-09-19T05:38:12;5.10;;;2.07;;
4106;SDS011;21906;50.812;7.132;2023-09-19T05:40:39;5.03;;;2.43;;
4106;SDS011;21906;50.812;7.132;2023-09-19T05:43:07;5.10;;;2.40;;
4106;SDS011;21906;50.812;7.132;2023-09-19T05:45:34;3.60;;;2.30;;
4106;SDS011;21906;50.812;7.132;2023-09-19T05:48:08;4.03;;;2.57;;
4106;SDS011;21906;50.812;7.132;2023-09-19T05:50:38;5.17;;;2.37;;
4106;SDS011;21906;50.812;7.132;2023-09-19T05:53:04;3.50;;;2.23;;
4106;SDS011;21906;50.812;7.132;2023-09-19T05:55:31;5.20;;;2.17;;
4106;SDS011;21906;50.812;7.132;2023-09-19T05:57:57;6.10;;;1.90;;
4106;SDS011;21906;50.812;7.132;2023-09-19T06:00:23;4.27;;;2.37;;
4106;SDS011;21906;50.812;7.132;2023-09-19T06:02:56;6.30;;;2.10;;
4106;SDS011;21906;50.812;7.132;2023-09-19T06:05:23;2.93;;;2.10;;
4106;SDS011;21906;50.812;7.132;2023-09-19T06:07:51;8.03;;;3.20;;
4106;SDS011;21906;50.812;7.132;2023-09-19T06:10:18;2.90;;;2.20;;
4106;SDS011;21906;50.812;7.132;2023-09-19T06:12:46;4.90;;;2.60;;
4106;SDS011;21906;50.812;7.132;2023-09-19T06:15:12;6.30;;;2.63;;
4106;SDS011;21906;50.812;7.132;2023-09-19T06:17:53;4.30;;;2.30;;
4106;SDS011;21906;50.812;7.132;2023-09-19T06:20:24;3.77;;;2.10;;
4106;SDS011;21906;50.812;7.132;2023-09-19T06:22:51;3.30;;;2.30;;
4106;SDS011;21906;50.812;7.132;2023-09-19T06:25:18;3.27;;;2.23;;
4106;SDS011;21906;50.812;7.132;2023-09-19T06:27:50;5.83;;;2.50;;
4106;SDS011;21906;50.812;7.132;2023-09-19T06:30:19;6.97;;;2.77;;
4106;SDS011;21906;50.812;7.132;2023-09-19T06:32:45;4.90;;;2.83;;
4106;SDS011;21906;50.812;7.132;2023-09-19T06:35:12;8.67;;;2.83;;
4106;SDS011;21906;50.812;7.132;2023-09-19T06:37:39;5.03;;;2.90;;
4106;SDS011;21906;50.812;7.132;2023-09-19T06:40:14;5.90;;;2.70;;
4106;SDS011;21906;50.812;7.132;2023-09-19T06:42:44;7.13;;;2.80;;
4106;SDS011;21906;50.812;7.132;2023-09-19T06:45:11;5.90;;;2.50;;
4106;SDS011;21906;50.812;7.132;2023-09-19T06:47:39;7.50;;;2.77;;
4106;SDS011;21906;50.812;7.132;2023-09-19T06:50:05;7.53;;;3.20;;
4106;SDS011;21906;50.812;7.132;2023-09-19T06:52:34;5.37;;;2.33;;
4106;SDS011;21906;50.812;7.132;2023-09-19T06:55:00;4.87;;;2.73;;
4106;SDS011;21906;50.812;7.132;2023-09-19T06:57:28;7.33;;;3.33;;
4106;SDS011;21906;50.812;7.132;2023-09-19T06:59:55;4.03;;;2.40;;
4106;SDS011;21906;50.812;7.132;2023-09-19T07:02:21;4.33;;;2.77;;
4106;SDS011;21906;50.812;7.132;2023-09-19T07:04:47;2.60;;;2.30;;
4106;SDS011;21906;50.812;7.132;2023-09-19T07:07:12;4.97;;;2.60;;
4106;SDS011;21906;50.812;7.132;2023-09-19T07:09:39;7.67;;;2.30;;
4106;SDS011;21906;50.812;7.132;2023-09-19T07:12:05;2.80;;;2.27;;
4106;SDS011;21906;50.812;7.132;2023-09-19T07:14:30;6.43;;;2.53;;
4106;SDS011;21906;50.812;7.132;2023-09-19T07:16:57;4.00;;;2.17;;
4106;SDS011;21906;50.812;7.132;2023-09-19T07:19:25;5.20;;;2.60;;
4106;SDS011;21906;50.812;7.132;2023-09-19T07:21:53;6.73;;;2.37;;
4106;SDS011;21906;50.812;7.132;2023-09-19T07:24:19;5.80;;;2.70;;
4106;SDS011;21906;50.812;7.132;2023-09-19T07:26:47;5.97;;;2.53;;
4106;SDS011;21906;50.812;7.132;2023-09-19T07:29:13;7.27;;;2.40;;
4106;SDS011;21906;50.812;7.132;2023-09-19T07:31:39;4.57;;;2.60;;
4106;SDS011;21906;50.812;7.132;2023-09-19T07:34:05;2.70;;;2.20;;
4106;SDS011;21906;50.812;7.132;2023-09-19T07:36:32;5.30;;;2.50;;
4106;SDS011;21906;50.812;7.132;2023-09-19T07:38:59;5.83;;;2.50;;
4106;SDS011;21906;50.812;7.132;2023-09-19T07:41:25;6.40;;;2.70;;
4106;SDS011;21906;50.812;7.132;2023-09-19T07:43:51;6.80;;;2.33;;
4106;SDS011;21906;50.812;7.132;2023-09-19T07:46:17;4.60;;;2.40;;
4106;SDS011;21906;50.812;7.132;2023-09-19T07:48:43;5.63;;;2.50;;
4106;SDS011;21906;50.812;7.132;2023-09-19T07:51:13;4.10;;;2.30;;
4106;SDS011;21906;50.812;7.132;2023-09-19T07:53:41;5.40;;;2.90;;
4106;SDS011;21906;50.812;7.132;2023-09-19T07:56:09;5.57;;;2.40;;
4106;SDS011;21906;50.812;7.132;2023-09-19T07:58:35;5.73;;;2.30;;
4106;SDS011;21906;50.812;7.132;2023-09-19T08:01:06;3.87;;;2.40;;
4106;SDS011;21906;50.812;7.132;2023-09-19T08:03:33;4.27;;;2.23;;
4106;SDS011;21906;50.812;7.132;2023-09-19T08:05:59;11.23;;;2.43;;
4106;SDS011;21906;50.812;7.132;2023-09-19T08:08:26;5.70;;;2.80;;
4106;SDS011;21906;50.812;7.132;2023-09-19T08:10:56;6.53;;;3.13;;
4106;SDS011;21906;50.812;7.132;2023-09-19T08:13:25;7.20;;;2.70;;
4106;SDS011;21906;50.812;7.132;2023-09-19T08:15:51;7.53;;;2.80;;
4106;SDS011;21906;50.812;7.132;2023-09-19T08:18:20;5.77;;;2.40;;
4106;SDS011;21906;50.812;7.132;2023-09-19T08:20:49;4.73;;;2.67;;
4106;SDS011;21906;50.812;7.132;2023-09-19T08:23:16;3.60;;;2.73;;
4106;SDS011;21906;50.812;7.132;2023-09-19T08:25:48;8.53;;;2.43;;
4106;SDS011;21906;50.812;7.132;2023-09-19T08:28:13;5.07;;;2.37;;
4106;SDS011;21906;50.812;7.132;2023-09-19T08:30:45;6.90;;;2.77;;
4106;SDS011;21906;50.812;7.132;2023-09-19T08:33:11;7.13;;;2.60;;
4106;SDS011;21906;50.812;7.132;2023-09-19T08:35:37;5.90;;;2.60;;
4106;SDS011;21906;50.812;7.132;2023-09-19T08:38:05;4.57;;;2.47;;
4106;SDS011;21906;50.812;7.132;2023-09-19T08:40:31;3.50;;;2.40;;
4106;SDS011;21906;50.812;7.132;2023-09-19T08:42:58;3.83;;;2.60;;
4106;SDS011;21906;50.812;7.132;2023-09-19T08:45:25;7.73;;;2.37;;
4106;SDS011;21906;50.812;7.132;2023-09-19T08:50:28;5.13;;;2.50;;
4106;SDS011;21906;50.812;7.132;2023-09-19T08:52:56;6.00;;;2.43;;
4106;SDS011;21906;50.812;7.132;2023-09-19T08:55:28;4.77;;;2.30;;
4106;SDS011;21906;50.812;7.132;2023-09-19T08:57:59;3.10;;;2.70;;
4106;SDS011;21906;50.812;7.132;2023-09-19T09:00:27;5.13;;;2.57;;
4106;SDS011;21906;50.812;7.132;2023-09-19T09:02:54;4.63;;;2.47;;
4106;SDS011;21906;50.812;7.132;2023-09-19T09:05:21;4.77;;;2.47;;
4106;SDS011;21906;50.812;7.132;2023-09-19T09:07:52;4.30;;;2.97;;
4106;SDS011;21906;50.812;7.132;2023-09-19T09:10:23;8.93;;;2.30;;
4106;SDS011;21906;50.812;7.132;2023-09-19T09:12:53;3.63;;;2.30;;
4106;SDS011;21906;50.812;7.132;2023-09-19T09:15:22;3.03;;;2.70;;
4106;SDS011;21906;50.812;7.132;2023-09-19T09:17:50;9.17;;;3.10;;
4106;SDS011;21906;50.812;7.132;2023-09-19T09:20:18;8.73;;;3.03;;
4106;SDS011;21906;50.812;7.132;2023-09-19T09:22:54;3.53;;;2.40;;
4106;SDS011;21906;50.812;7.132;2023-09-19T09:25:29;5.37;;;2.80;;
4106;SDS011;21906;50.812;7.132;2023-09-19T09:28:20;5.10;;;2.93;;
4106;SDS011;21906;50.812;7.132;2023-09-19T09:30:48;3.20;;;2.30;;
4106;SDS011;21906;50.812;7.132;2023-09-19T09:33:15;5.63;;;2.40;;
4106;SDS011;21906;50.812;7.132;2023-09-19T09:38:17;5.07;;;2.50;;
4106;SDS011;21906;50.812;7.132;2023-09-19T09:40:50;4.77;;;2.27;;
4106;SDS011;21906;50.812;7.132;2023-09-19T09:43:27;4.33;;;2.40;;
4106;SDS011;21906;50.812;7.132;2023-09-19T09:48:48;5.83;;;3.13;;
4106;SDS011;21906;50.812;7.132;2023-09-19T09:54:26;3.90;;;2.10;;
4106;SDS011;21906;50.812;7.132;2023-09-19T09:57:05;4.40;;;2.70;;
4106;SDS011;21906;50.812;7.132;2023-09-19T09:59:54;4.50;;;2.37;;
4106;SDS011;21906;50.812;7.132;2023-09-19T10:02:37;6.70;;;2.13;;
4106;SDS011;21906;50.812;7.132;2023-09-19T10:07:53;3.10;;;2.60;;
4106;SDS011;21906;50.812;7.132;2023-09-19T10:10:37;3.67;;;2.90;;
4106;SDS011;21906;50.812;7.132;2023-09-19T10:13:05;4.37;;;2.40;;
4106;SDS011;21906;50.812;7.132;2023-09-19T10:15:34;5.90;;;2.20;;
4106;SDS011;21906;50.812;7.132;2023-09-19T10:18:01;2.87;;;2.07;;
4106;SDS011;21906;50.812;7.132;2023-09-19T10:20:30;5.50;;;2.57;;
4106;SDS011;21906;50.812;7.132;2023-09-19T10:23:00;4.20;;;2.27;;
4106;SDS011;21906;50.812;7.132;2023-09-19T10:25:29;3.13;;;2.20;;
4106;SDS011;21906;50.812;7.132;2023-09-19T10:27:58;4.90;;;2.40;;
4106;SDS011;21906;50.812;7.132;2023-09-19T10:30:30;4.90;;;2.63;;
4106;SDS011;21906;50.812;7.132;2023-09-19T10:33:01;4.50;;;2.60;;
4106;SDS011;21906;50.812;7.132;2023-09-19T10:35:28;2.60;;;2.20;;
4106;SDS011;21906;50.812;7.132;2023-09-19T10:37:59;2.30;;;2.10;;
4106;SDS011;21906;50.812;7.132;2023-09-19T10:40:26;3.73;;;2.30;;
4106;SDS011;21906;50.812;7.132;2023-09-19T10:43:15;4.50;;;2.13;;
4106;SDS011;21906;50.812;7.132;2023-09-19T10:45:46;3.13;;;2.10;;
4106;SDS011;21906;50.812;7.132;2023-09-19T10:48:17;2.33;;;2.00;;
4106;SDS011;21906;50.812;7.132;2023-09-19T10:53:48;3.87;;;2.47;;
4106;SDS011;21906;50.812;7.132;2023-09-19T10:56:24;3.27;;;2.70;;
4106;SDS011;21906;50.812;7.132;2023-09-19T10:59:11;5.80;;;2.10;;
4106;SDS011;21906;50.812;7.132;2023-09-19T11:01:46;2.67;;;2.10;;
4106;SDS011;21906;50.812;7.132;2023-09-19T11:07:04;3.67;;;1.97;;
4106;SDS011;21906;50.812;7.132;2023-09-19T11:15:00;2.63;;;1.83;;
4106;SDS011;21906;50.812;7.132;2023-09-19T11:17:33;3.70;;;2.40;;
4106;SDS011;21906;50.812;7.132;2023-09-19T11:30:42;4.63;;;2.43;;
4106;SDS011;21906;50.812;7.132;2023-09-19T11:33:23;2.43;;;1.90;;
4106;SDS011;21906;50.812;7.132;2023-09-19T11:46:15;3.87;;;1.93;;
4106;SDS011;21906;50.812;7.132;2023-09-19T11:48:47;4.23;;;2.03;;
4106;SDS011;21906;50.812;7.132;2023-09-19T11:51:18;2.77;;;2.20;;
4106;SDS011;21906;50.812;7.132;2023-09-19T11:53:47;6.23;;;2.10;;
4106;SDS011;21906;50.812;7.132;2023-09-19T11:56:17;3.70;;;1.93;;
4106;SDS011;21906;50.812;7.132;2023-09-19T11:58:49;4.53;;;2.30;;
4106;SDS011;21906;50.812;7.132;2023-09-19T12:01:27;3.93;;;2.20;;
4106;SDS011;21906;50.812;7.132;2023-09-19T12:03:57;2.63;;;1.90;;
4106;SDS011;21906;50.812;7.132;2023-09-19T12:06:25;6.33;;;2.50;;
4106;SDS011;21906;50.812;7.132;2023-09-19T12:08:52;2.33;;;2.10;;
4106;SDS011;21906;50.812;7.132;2023-09-19T12:11:22;3.07;;;2.03;;
4106;SDS011;21906;50.812;7.132;2023-09-19T12:13:50;4.30;;;1.93;;
4106;SDS011;21906;50.812;7.132;2023-09-19T12:16:17;2.90;;;2.00;;
4106;SDS011;21906;50.812;7.132;2023-09-19T12:18:47;3.00;;;1.93;;
4106;SDS011;21906;50.812;7.132;2023-09-19T12:21:52;3.23;;;2.30;;
4106;SDS011;21906;50.812;7.132;2023-09-19T12:24:13;3.87;;;1.80;;
4106;SDS011;21906;50.812;7.132;2023-09-19T12:26:39;4.50;;;2.17;;
4106;SDS011;21906;50.812;7.132;2023-09-19T12:29:11;6.73;;;2.47;;
4106;SDS011;21906;50.812;7.132;2023-09-19T12:31:48;3.57;;;1.80;;
4106;SDS011;21906;50.812;7.132;2023-09-19T12:34:22;2.33;;;2.13;;
4106;SDS011;21906;50.812;7.132;2023-09-19T12:37:04;2.57;;;2.37;;
4106;SDS011;21906;50.812;7.132;2023-09-19T12:39:37;2.67;;;2.00;;
4106;SDS011;21906;50.812;7.132;2023-09-19T12:42:10;4.70;;;2.13;;
4106;SDS011;21906;50.812;7.132;2023-09-19T12:44:42;2.73;;;2.00;;
4106;SDS011;21906;50.812;7.132;2023-09-19T12:47:16;3.33;;;2.43;;
4106;SDS011;21906;50.812;7.132;2023-09-19T12:52:50;6.23;;;2.10;;
4106;SDS011;21906;50.812;7.132;2023-09-19T12:55:22;3.10;;;2.10;;
4106;SDS011;21906;50.812;7.132;2023-09-19T12:57:56;5.13;;;2.00;;
4106;SDS011;21906;50.812;7.132;2023-09-19T13:00:36;3.67;;;2.13;;
4106;SDS011;21906;50.812;7.132;2023-09-19T13:03:11;4.70;;;2.10;;
4106;SDS011;21906;50.812;7.132;2023-09-19T13:06:03;3.20;;;1.80;;
4106;SDS011;21906;50.812;7.132;2023-09-19T13:08:30;2.73;;;2.20;;
4106;SDS011;21906;50.812;7.132;2023-09-19T13:16:14;2.40;;;1.67;;
4106;SDS011;21906;50.812;7.132;2023-09-19T13:18:45;2.37;;;1.77;;
4106;SDS011;21906;50.812;7.132;2023-09-19T13:21:12;2.47;;;1.80;;
4106;SDS011;21906;50.812;7.132;2023-09-19T13:24:01;1.90;;;1.70;;
4106;SDS011;21906;50.812;7.132;2023-09-19T13:26:53;2.80;;;1.50;;
4106;SDS011;21906;50.812;7.132;2023-09-19T13:29:21;3.13;;;1.70;;
4106;SDS011;21906;50.812;7.132;2023-09-19T13:31:51;2.60;;;1.73;;
4106;SDS011;21906;50.812;7.132;2023-09-19T13:34:20;3.00;;;1.77;;
4106;SDS011;21906;50.812;7.132;2023-09-19T13:36:46;2.60;;;1.87;;
4106;SDS011;21906;50.812;7.132;2023-09-19T13:39:15;1.60;;;1.50;;
4106;SDS011;21906;50.812;7.132;2023-09-19T13:41:43;3.43;;;1.40;;
4106;SDS011;21906;50.812;7.132;2023-09-19T13:44:11;2.40;;;1.83;;
4106;SDS011;21906;50.812;7.132;2023-09-19T13:46:37;3.20;;;1.50;;
4106;SDS011;21906;50.812;7.132;2023-09-19T13:49:03;2.30;;;1.57;;
4106;SDS011;21906;50.812;7.132;2023-09-19T13:51:30;2.90;;;1.60;;
4106;SDS011;21906;50.812;7.132;2023-09-19T13:53:56;2.90;;;1.70;;
4106;SDS011;21906;50.812;7.132;2023-09-19T13:56:22;2.23;;;1.60;;
4106;SDS011;21906;50.812;7.132;2023-09-19T13:58:49;4.30;;;1.73;;
4106;SDS011;21906;50.812;7.132;2023-09-19T14:01:14;2.67;;;1.47;;
4106;SDS011;21906;50.812;7.132;2023-09-19T14:03:40;2.23;;;1.50;;
4106;SDS011;21906;50.812;7.132;2023-09-19T14:06:18;2.43;;;1.40;;
4106;SDS011;21906;50.812;7.132;2023-09-19T14:08:44;2.33;;;1.67;;
4106;SDS011;21906;50.812;7.132;2023-09-19T14:11:15;1.80;;;1.60;;
4106;SDS011;21906;50.812;7.132;2023-09-19T14:13:41;3.07;;;1.50;;
4106;SDS011;21906;50.812;7.132;2023-09-19T14:16:12;2.77;;;1.60;;
4106;SDS011;21906;50.812;7.132;2023-09-19T14:18:38;2.20;;;1.60;;
4106;SDS011;21906;50.812;7.132;2023-09-19T14:21:04;1.80;;;1.70;;
4106;SDS011;21906;50.812;7.132;2023-09-19T14:23:34;2.00;;;1.23;;
4106;SDS011;21906;50.812;7.132;2023-09-19T14:26:01;2.87;;;1.30;;
4106;SDS011;21906;50.812;7.132;2023-09-19T14:28:27;1.70;;;1.30;;
4106;SDS011;21906;50.812;7.132;2023-09-19T14:30:54;2.10;;;1.60;;
4106;SDS011;21906;50.812;7.132;2023-09-19T14:33:20;3.60;;;1.80;;
4106;SDS011;21906;50.812;7.132;2023-09-19T14:35:46;1.70;;;1.40;;
4106;SDS011;21906;50.812;7.132;2023-09-19T14:38:12;3.00;;;1.30;;
4106;SDS011;21906;50.812;7.132;2023-09-19T14:40:39;3.30;;;1.80;;
4106;SDS011;21906;50.812;7.132;2023-09-19T14:43:05;1.63;;;1.43;;
4106;SDS011;21906;50.812;7.132;2023-09-19T14:45:35;2.67;;;1.60;;
4106;SDS011;21906;50.812;7.132;2023-09-19T14:48:01;3.93;;;1.20;;
4106;SDS011;21906;50.812;7.132;2023-09-19T14:50:30;2.17;;;1.80;;
4106;SDS011;21906;50.812;7.132;2023-09-19T14:52:56;4.13;;;1.33;;
4106;SDS011;21906;50.812;7.132;2023-09-19T14:55:26;1.40;;;1.30;;
4106;SDS011;21906;50.812;7.132;2023-09-19T14:57:54;1.83;;;1.40;;
4106;SDS011;21906;50.812;7.132;2023-09-19T15:00:22;2.07;;;1.50;;
4106;SDS011;21906;50.812;7.132;2023-09-19T15:02:48;1.90;;;1.43;;
4106;SDS011;21906;50.812;7.132;2023-09-19T15:05:15;4.03;;;1.40;;
4106;SDS011;21906;50.812;7.132;2023-09-19T15:07:41;2.00;;;1.50;;
4106;SDS011;21906;50.812;7.132;2023-09-19T15:10:07;3.23;;;1.40;;
4106;SDS011;21906;50.812;7.132;2023-09-19T15:12:35;2.40;;;1.70;;
4106;SDS011;21906;50.812;7.132;2023-09-19T15:15:03;1.93;;;1.40;;
4106;SDS011;21906;50.812;7.132;2023-09-19T15:17:32;3.90;;;1.47;;
4106;SDS011;21906;50.812;7.132;2023-09-19T15:19:57;1.70;;;1.30;;
4106;SDS011;21906;50.812;7.132;2023-09-19T15:22:23;1.40;;;1.07;;
4106;SDS011;21906;50.812;7.132;2023-09-19T15:24:50;3.43;;;1.27;;
4106;SDS011;21906;50.812;7.132;2023-09-19T15:27:16;2.00;;;1.27;;
4106;SDS011;21906;50.812;7.132;2023-09-19T15:29:45;2.67;;;1.50;;
4106;SDS011;21906;50.812;7.132;2023-09-19T15:32:11;2.23;;;1.50;;
4106;SDS011;21906;50.812;7.132;2023-09-19T15:34:37;2.13;;;1.40;;
4106;SDS011;21906;50.812;7.132;2023-09-19T15:37:03;2.33;;;1.43;;
4106;SDS011;21906;50.812;7.132;2023-09-19T15:39:31;1.80;;;1.40;;
4106;SDS011;21906;50.812;7.132;2023-09-19T15:42:02;2.03;;;1.33;;
4106;SDS011;21906;50.812;7.132;2023-09-19T15:44:28;1.60;;;1.20;;
4106;SDS011;21906;50.812;7.132;2023-09-19T15:46:54;1.40;;;1.30;;
4106;SDS011;21906;50.812;7.132;2023-09-19T15:49:19;1.50;;;1.20;;
4106;SDS011;21906;50.812;7.132;2023-09-19T15:51:46;1.53;;;1.43;;
4106;SDS011;21906;50.812;7.132;2023-09-19T15:54:15;2.30;;;1.47;;
4106;SDS011;21906;50.812;7.132;2023-09-19T15:56:42;1.80;;;1.47;;
4106;SDS011;21906;50.812;7.132;2023-09-19T15:59:10;2.30;;;1.40;;
4106;SDS011;21906;50.812;7.132;2023-09-19T16:01:40;1.40;;;1.30;;
4106;SDS011;21906;50.812;7.132;2023-09-19T16:04:08;3.63;;;1.40;;
4106;SDS011;21906;50.812;7.132;2023-09-19T16:06:35;2.23;;;1.27;;
4106;SDS011;21906;50.812;7.132;2023-09-19T16:09:01;2.27;;;1.50;;
4106;SDS011;21906;50.812;7.132;2023-09-19T16:11:29;2.30;;;1.30;;
4106;SDS011;21906;50.812;7.132;2023-09-19T16:13:57;1.87;;;1.30;;
4106;SDS011;21906;50.812;7.132;2023-09-19T16:16:25;2.20;;;1.20;;
4106;SDS011;21906;50.812;7.132;2023-09-19T16:18:56;2.23;;;1.63;;
4106;SDS011;21906;50.812;7.132;2023-09-19T16:21:24;5.10;;;1.63;;
4106;SDS011;21906;50.812;7.132;2023-09-19T16:23:54;2.43;;;1.80;;
4106;SDS011;21906;50.812;7.132;2023-09-19T16:26:21;3.63;;;1.40;;